Date,TemperatureHighF,TemperatureAvgF,TemperatureLowF,DewpointHighF,DewpointAvgF,DewpointLowF,HumidityHigh,HumidityAvg,HumidityLow,PressureMaxIn,PressureMinIn,WindSpeedMaxMPH,WindSpeedAvgMPH,GustSpeedMaxMPH,PrecipitationSumIn
2013-1-1,42.3,37.4,29.6,41.2,35.4,26.8,96,92,89,30.22,30.02,5,1,17,0.33
2013-1-2,34.3,28.9,24.2,26.1,22.9,20.9,90,79,58,30.31,30.20,5,1,10,0.00
2013-1-3,42.8,31.3,19.3,29.5,25.1,17.9,96,79,54,30.44,30.28,4,0,8,0.00
2013-1-4,47.3,33.1,21.5,31.5,26.4,20.0,96,79,49,30.52,30.41,4,0,8,0.00
2013-1-5,44.9,37.4,26.4,36.9,31.4,24.6,94,80,64,30.42,30.27,5,1,12,0.00
2013-1-6,50.1,38.9,28.3,38.3,34.0,26.0,97,84,56,30.40,30.25,6,1,12,0.00
2013-1-7,50.6,35.1,25.3,28.6,26.2,22.5,94,73,39,30.44,30.23,9,1,16,0.00
2013-1-8,57.4,46.1,28.3,45.5,35.6,25.5,90,68,51,30.29,30.16,8,1,14,0.00
2013-1-9,56.5,53.5,51.2,54.5,51.6,45.7,97,93,71,30.35,30.21,10,3,16,0.92
2013-1-10,67.1,61.4,55.0,63.8,59.8,53.9,97,95,88,30.27,29.89,14,5,42,1.21
2013-1-11,67.0,60.6,53.8,60.8,53.6,49.8,95,79,56,30.04,29.92,7,2,13,0.00
2013-1-12,71.5,67.8,62.9,67.2,65.0,61.2,98,91,82,29.95,29.73,11,3,15,0.21
2013-1-13,70.3,41.9,30.4,64.9,39.7,27.0,95,92,82,30.27,29.73,8,2,18,3.48
2013-1-14,30.3,27.6,25.8,26.9,23.8,22.0,89,85,78,30.41,30.27,6,2,15,0.00
2013-1-15,30.3,28.0,24.9,29.0,25.9,22.1,95,92,87,30.29,30.08,6,2,11,0.00
2013-1-16,32.1,30.4,28.5,30.3,28.7,26.7,95,93,91,30.21,30.07,3,0,6,0.00
2013-1-17,46.1,36.9,30.8,36.5,31.7,27.9,94,82,65,30.49,30.15,7,1,12,0.06
2013-1-18,53.4,38.0,21.7,31.2,26.9,20.5,96,68,33,30.58,30.36,4,0,7,0.00
2013-1-19,56.5,46.3,37.5,36.9,33.2,29.4,81,62,42,30.36,30.18,10,2,14,0.00
2013-1-20,59.0,45.6,30.9,37.5,33.0,28.8,93,64,38,30.28,30.16,7,1,12,0.00
2013-1-21,42.9,33.8,22.5,28.5,20.5,16.1,86,60,35,30.36,30.18,8,2,13,0.00
2013-1-22,39.0,30.9,20.3,19.7,18.3,15.9,91,62,42,30.45,30.33,6,1,10,0.00
2013-1-23,54.8,40.2,26.7,42.0,30.6,18.2,92,69,51,30.36,30.18,3,1,8,0.00
2013-1-24,44.2,39.2,34.9,41.0,25.6,19.0,95,59,46,30.44,30.22,7,3,15,0.00
2013-1-25,50.1,39.4,31.2,44.8,33.2,23.0,95,80,49,30.26,30.05,7,1,11,0.06
2013-1-26,54.9,42.7,29.3,35.6,32.2,28.1,97,70,38,30.35,30.25,8,1,10,0.01
2013-1-27,64.1,55.4,47.0,53.5,45.9,34.7,82,70,61,30.26,30.12,8,2,14,0.00
2013-1-28,71.6,63.3,57.5,61.4,57.3,53.2,91,81,69,30.17,30.05,13,4,17,0.00
2013-1-29,75.4,67.7,59.5,64.6,60.7,57.2,96,79,61,30.05,29.45,20,6,28,1.30
2013-1-30,59.8,47.3,33.3,56.2,41.2,26.1,97,80,62,30.05,29.53,14,4,24,1.54
2013-1-31,54.4,40.1,26.5,35.4,28.7,21.7,91,66,41,30.35,30.05,10,2,16,0.00
2013-2-1,37.1,28.8,21.2,17.3,11.8,7.7,65,50,32,30.56,30.32,7,1,13,0.00
2013-2-2,51.4,37.3,26.2,35.7,28.5,15.3,93,71,50,30.32,30.15,7,1,9,0.01
2013-2-3,53.4,43.6,34.7,34.8,30.9,26.2,88,63,37,30.21,30.12,9,1,18,0.00
2013-2-4,56.9,45.9,34.5,44.0,34.5,26.8,89,66,39,30.12,29.92,9,2,17,0.06
2013-2-5,62.9,48.1,37.7,49.8,42.9,36.2,97,84,53,30.07,29.93,2,0,7,0.01
2013-2-6,61.0,50.1,36.3,46.3,41.8,35.3,97,75,55,30.21,30.04,8,2,14,0.00
2013-2-7,67.7,58.1,49.5,55.1,49.3,38.8,95,73,59,30.04,29.87,9,1,12,0.27
2013-2-8,56.3,44.0,32.1,55.2,39.0,29.2,96,83,70,30.31,29.90,9,3,23,0.26
2013-2-9,51.0,41.4,27.4,39.4,33.3,25.9,95,74,57,30.33,30.05,8,2,14,0.01
2013-2-10,60.2,55.5,51.1,57.9,49.4,37.7,95,81,55,30.04,29.75,12,4,23,1.03
2013-2-11,57.4,49.6,44.3,52.3,34.5,28.1,87,58,33,30.21,29.97,3,0,12,0.00
2013-2-12,51.4,45.9,39.9,40.5,36.6,33.5,91,71,51,30.16,29.80,8,2,15,0.02
2013-2-13,44.1,40.9,37.8,41.1,38.2,35.4,95,90,79,30.04,29.78,6,1,10,0.07
2013-2-14,60.3,47.3,35.7,42.4,37.5,34.3,95,72,42,30.08,30.01,8,2,14,0.01
2013-2-15,53.9,44.1,33.0,39.2,32.4,25.0,95,66,34,30.21,30.06,9,1,15,0.00
2013-2-16,38.1,33.0,25.2,26.3,20.6,17.2,75,60,46,30.29,30.21,5,1,15,0.00
2013-2-17,55.8,43.4,30.7,32.1,25.7,18.9,66,51,36,30.28,30.08,9,2,16,0.00
2013-2-18,57.8,51.3,45.5,51.7,43.3,32.0,94,74,56,30.09,29.77,16,5,25,1.30
2013-2-19,48.6,40.1,29.8,38.8,28.0,21.9,84,64,39,30.29,29.98,7,1,16,0.00
2013-2-20,36.9,33.2,30.2,25.9,18.8,13.5,78,56,44,30.36,30.19,8,2,13,0.01
2013-2-21,45.5,38.5,32.3,43.8,32.1,23.1,95,78,51,30.20,29.76,14,4,20,0.81
2013-2-22,49.6,40.7,35.5,40.2,37.1,32.2,97,87,69,30.10,29.89,6,0,10,0.01
2013-2-23,50.3,38.0,29.8,31.9,29.3,27.0,90,72,45,30.08,29.97,6,1,12,0.00
2013-2-24,58.4,43.4,26.9,33.9,30.2,24.6,94,63,37,30.12,29.91,8,2,15,0.00
2013-2-25,58.1,51.8,41.9,54.2,40.5,28.1,94,66,47,29.91,29.32,17,6,25,0.74
2013-2-26,52.9,43.9,40.3,50.3,38.1,33.3,91,80,70,29.83,29.34,15,4,24,0.00
2013-2-27,45.5,41.8,38.9,36.0,33.4,30.3,77,72,63,29.99,29.84,8,2,14,0.00
2013-2-28,43.7,38.3,33.4,31.1,28.6,27.3,81,68,57,30.12,29.99,7,1,15,0.00
2013-3-1,37.2,34.8,31.7,30.0,28.0,25.6,83,76,68,30.18,30.10,5,1,14,0.00
2013-3-2,34.4,31.3,24.7,28.1,24.6,20.7,89,76,64,30.27,30.16,7,1,14,0.00
2013-3-3,48.1,34.3,17.5,27.1,22.2,15.8,94,65,36,30.26,30.08,6,1,10,0.00
2013-3-4,68.5,53.9,36.8,50.4,34.4,24.4,69,49,27,30.08,29.77,12,4,25,0.00
2013-3-5,62.4,48.6,37.0,56.6,38.0,24.4,92,68,41,30.19,29.76,14,3,22,0.43
2013-3-6,45.9,37.6,31.6,28.5,25.8,21.9,82,63,49,30.37,30.19,9,2,15,0.00
2013-3-7,53.9,41.1,30.6,32.2,29.6,26.9,88,66,41,30.41,30.29,7,1,9,0.00
2013-3-8,64.1,48.8,33.8,34.0,29.6,25.3,81,52,25,30.40,30.18,9,1,14,0.00
2013-3-9,69.9,60.3,51.0,41.3,34.0,27.1,48,38,27,30.17,29.92,10,3,17,0.00
2013-3-10,65.0,57.6,49.2,58.0,50.7,41.3,96,79,45,29.95,29.75,17,4,29,1.25
2013-3-11,48.4,41.0,31.1,44.7,34.1,29.0,94,77,61,30.05,29.84,8,2,15,0.00
2013-3-12,56.2,41.2,26.4,35.8,29.0,22.5,97,67,31,30.23,30.04,6,1,10,0.00
2013-3-13,50.2,42.3,30.6,32.0,27.2,24.3,84,56,39,30.42,30.23,7,1,14,0.00
2013-3-14,62.7,43.7,26.2,37.0,29.3,23.7,91,61,30,30.44,30.18,9,2,16,0.00
2013-3-15,76.8,63.0,48.5,53.7,45.6,36.2,67,54,43,30.17,29.89,13,4,22,0.00
2013-3-16,75.8,66.3,57.5,56.5,53.1,47.8,79,63,50,29.92,29.82,16,5,21,0.00
2013-3-17,73.8,62.4,53.1,57.8,52.6,49.0,87,71,55,29.90,29.67,9,2,17,0.01
2013-3-18,68.0,55.2,40.1,61.1,51.0,38.5,95,86,74,30.04,29.67,12,2,23,0.53
2013-3-19,58.8,46.8,32.4,38.8,30.7,21.6,97,60,26,30.20,30.04,10,2,14,0.01
2013-3-20,53.4,45.2,31.5,35.7,25.7,10.4,84,48,27,30.25,30.09,9,2,20,0.00
2013-3-21,48.2,39.0,27.5,32.3,18.3,12.6,91,46,25,30.13,29.95,6,2,12,0.09
2013-3-22,47.0,41.7,34.1,44.0,39.5,32.0,95,92,88,29.99,29.87,9,3,15,0.51
2013-3-23,55.0,49.0,45.4,49.4,46.2,43.4,96,90,81,29.92,29.68,8,2,16,0.40
2013-3-24,50.5,44.8,36.3,49.4,39.7,26.8,97,83,66,29.98,29.55,18,4,23,0.06
2013-3-25,39.2,36.0,32.2,27.1,24.6,22.4,71,63,56,30.27,29.98,20,4,22,0.00
2013-3-26,47.7,36.9,28.3,28.9,25.5,22.3,86,64,45,30.39,30.26,12,2,14,0.00
2013-3-27,57.9,41.3,24.1,34.7,28.6,22.1,94,65,35,30.44,30.30,7,1,12,0.00
2013-3-28,69.5,52.2,32.0,38.3,34.2,29.6,91,55,30,30.36,30.22,8,1,10,0.00
2013-3-29,62.9,54.7,51.2,52.6,44.7,35.3,93,72,39,30.26,30.16,9,2,14,0.24
2013-3-30,58.4,53.9,51.4,56.7,52.1,49.5,98,94,90,30.18,29.93,5,1,9,0.46
2013-3-31,63.5,56.6,45.2,58.7,54.0,44.3,98,91,77,29.96,29.86,6,1,12,0.07
2013-4-1,69.7,54.7,39.2,51.5,44.4,38.4,98,72,43,30.12,29.93,6,1,12,0.00
2013-4-2,53.2,46.3,39.2,40.5,33.2,27.6,91,62,42,30.26,30.10,9,3,16,0.10
2013-4-3,48.6,44.0,40.3,36.8,30.9,24.9,82,61,43,30.23,30.12,9,3,17,0.06
2013-4-4,48.5,43.8,40.6,44.5,40.0,31.0,96,88,51,30.12,29.98,6,1,10,0.28
2013-4-5,69.6,53.3,41.5,47.1,40.7,35.3,98,69,31,30.18,30.06,2,0,9,0.00
2013-4-6,75.3,58.9,40.9,44.5,40.9,34.6,94,57,23,30.10,29.93,16,3,20,0.00
2013-4-7,71.8,63.8,58.4,56.0,51.5,43.8,78,65,52,30.04,29.90,12,4,17,0.00
2013-4-8,79.5,68.8,62.2,59.9,57.2,52.3,83,67,48,29.99,29.86,8,4,18,0.00
2013-4-9,82.8,73.5,65.1,67.3,64.2,59.0,87,73,58,29.98,29.85,9,3,23,0.00
2013-4-10,84.8,76.7,70.2,67.7,65.8,63.6,86,70,52,29.94,29.66,14,4,22,0.07
2013-4-11,72.5,52.9,40.9,66.2,50.9,39.6,96,93,80,29.82,29.66,13,1,23,2.37
2013-4-12,68.3,52.4,36.2,46.8,42.4,35.4,97,73,44,30.01,29.82,10,1,17,0.01
2013-4-13,76.2,59.0,43.6,47.6,43.2,38.6,94,60,32,30.11,29.92,5,1,9,0.00
2013-4-14,69.6,62.6,57.0,56.5,51.1,45.4,85,66,56,29.92,29.74,15,3,22,0.00
2013-4-15,83.5,68.3,54.6,63.7,59.2,52.9,95,75,49,29.93,29.82,10,3,16,0.00
2013-4-16,86.5,76.4,68.4,71.4,68.8,63.7,91,78,59,30.03,29.90,10,3,17,0.00
2013-4-17,87.4,76.8,67.9,71.0,68.4,66.1,95,77,52,30.06,29.84,14,3,21,0.00
2013-4-18,79.3,69.1,45.2,68.4,61.4,42.7,94,78,57,29.86,29.60,18,4,25,2.09
2013-4-19,56.7,46.8,41.1,42.6,35.2,31.1,91,65,42,30.15,29.85,10,1,16,0.00
2013-4-20,69.5,52.2,35.1,44.7,37.7,33.8,96,64,30,30.27,30.15,5,0,10,0.00
2013-4-21,71.2,59.0,47.4,40.9,37.8,34.2,66,47,28,30.34,30.17,6,1,14,0.00
2013-4-22,76.7,61.9,44.5,50.6,46.1,39.2,84,58,36,30.20,30.01,14,2,15,0.00
2013-4-23,75.1,66.2,57.7,62.8,58.2,50.6,89,76,61,30.05,29.89,12,3,18,0.10
2013-4-24,65.6,49.5,39.2,63.3,44.3,37.6,95,83,57,30.30,29.87,5,1,13,1.19
2013-4-25,71.0,52.8,33.5,44.1,38.9,32.7,97,65,28,30.40,30.28,2,0,9,0.00
2013-4-26,70.0,57.1,48.1,52.4,44.9,39.5,83,65,36,30.40,30.21,8,2,18,0.12
2013-4-27,75.5,63.4,54.0,66.2,58.4,47.8,95,84,73,30.22,29.86,12,2,20,0.08
2013-4-28,67.3,60.5,49.8,58.3,54.7,48.4,95,82,66,29.98,29.93,3,0,8,0.00
2013-4-29,82.3,65.2,47.0,59.1,53.4,46.2,98,70,41,30.02,29.88,5,1,8,0.01
2013-4-30,84.0,70.6,55.7,61.0,55.5,50.0,84,61,38,29.95,29.87,9,1,13,0.00
2013-5-1,79.4,70.4,63.1,65.2,60.9,55.2,85,72,61,30.04,29.92,8,1,16,0.00
2013-5-2,67.9,63.9,61.4,62.5,60.6,57.8,97,89,79,30.10,29.99,7,0,9,0.65
2013-5-3,63.1,46.9,35.7,62.2,45.4,34.2,97,94,89,30.01,29.89,7,1,12,3.14
2013-5-4,58.9,45.3,33.1,46.3,39.7,32.1,97,83,54,29.98,29.89,9,1,13,0.05
2013-5-5,62.1,50.9,43.6,49.5,45.7,42.3,96,84,53,29.95,29.87,6,1,14,0.44
2013-5-6,66.0,58.2,52.6,56.9,54.4,49.8,97,87,71,29.96,29.86,5,0,10,0.02
2013-5-7,76.2,63.8,50.5,61.0,56.4,49.7,98,79,52,30.02,29.93,4,0,7,0.01
2013-5-8,83.5,68.8,50.9,63.6,57.3,50.1,97,70,43,30.08,29.99,5,0,10,0.00
2013-5-9,81.7,71.1,61.4,65.4,61.1,57.1,86,72,52,30.07,29.94,12,2,18,0.00
2013-5-10,77.8,68.2,63.7,69.2,64.8,62.2,97,89,71,29.96,29.85,10,2,21,2.76
2013-5-11,76.0,66.4,58.5,64.1,57.6,52.7,97,75,48,30.06,29.92,5,1,13,0.00
2013-5-12,68.9,59.4,45.7,55.0,39.6,33.7,87,51,29,30.23,30.06,8,1,13,0.00
2013-5-13,77.4,62.0,42.4,52.8,46.5,39.6,95,61,34,30.28,30.13,7,1,12,0.00
2013-5-14,87.9,74.1,61.7,60.9,55.4,51.2,71,54,34,30.13,30.01,14,3,18,0.00
2013-5-15,86.4,76.4,63.5,59.0,55.7,50.4,74,50,36,30.11,29.94,13,4,18,0.00
2013-5-16,76.8,70.6,64.5,64.9,62.1,58.3,92,75,56,29.99,29.89,7,1,12,0.01
2013-5-17,82.1,70.8,65.6,70.2,66.0,62.5,96,86,64,29.94,29.88,8,2,14,0.23
2013-5-18,85.0,75.3,64.8,75.8,71.1,63.6,98,87,71,29.98,29.89,5,1,8,0.00
2013-5-19,88.5,79.7,72.1,73.4,70.0,66.6,93,74,52,29.96,29.85,9,3,20,0.00
2013-5-20,88.4,80.3,73.6,73.5,71.2,69.5,90,74,59,29.94,29.81,14,4,17,0.00
2013-5-21,78.4,69.9,62.6,72.5,67.3,62.0,98,92,76,29.96,29.75,9,1,24,5.89
2013-5-22,81.2,70.2,61.7,67.1,63.7,61.1,98,82,58,29.90,29.75,8,2,18,0.06
2013-5-23,84.1,73.8,60.0,66.1,62.5,57.6,96,70,51,30.11,29.90,5,1,12,0.00
2013-5-24,77.0,66.0,55.5,57.8,52.2,47.5,89,64,36,30.28,30.11,10,2,16,0.00
2013-5-25,83.2,68.2,52.2,59.0,53.5,48.7,88,63,36,30.30,30.14,2,0,9,0.00
2013-5-26,86.8,72.9,57.6,61.3,57.7,54.4,92,62,34,30.19,30.07,8,1,10,0.00
2013-5-27,87.4,75.8,64.6,70.4,63.1,58.2,81,66,43,30.09,29.95,9,2,16,0.00
2013-5-28,90.2,79.2,70.3,70.0,64.5,58.3,82,63,35,30.03,29.94,9,3,16,0.00
2013-5-29,88.9,78.4,65.3,70.9,65.5,59.2,81,65,43,30.02,29.91,9,2,15,0.00
2013-5-30,86.3,77.0,72.0,73.8,69.8,67.3,90,79,61,30.01,29.89,13,3,20,0.04
2013-5-31,86.2,77.9,67.7,74.9,72.0,65.7,96,83,66,29.98,29.82,10,2,20,1.01
2013-6-1,83.3,72.8,66.0,74.0,69.5,63.8,96,90,70,29.97,29.78,13,2,21,0.65
2013-6-2,81.6,72.0,64.0,69.6,65.5,60.0,97,81,60,29.96,29.90,2,0,7,0.01
2013-6-3,83.3,70.9,58.6,65.5,61.3,57.5,97,74,48,30.01,29.90,3,0,9,0.00
2013-6-4,88.8,75.0,62.3,66.7,63.4,59.0,90,69,44,30.00,29.89,6,0,7,0.00
2013-6-5,89.9,78.3,67.6,74.4,69.4,63.8,91,75,58,29.93,29.77,7,1,13,0.01
2013-6-6,84.7,75.9,67.9,70.4,67.5,65.3,96,77,56,29.83,29.74,7,1,9,0.00
2013-6-7,83.9,73.9,64.0,65.9,60.7,54.0,79,65,41,29.88,29.76,6,0,10,0.00
2013-6-8,87.0,73.7,56.6,63.5,58.2,55.5,96,62,37,29.98,29.87,6,0,8,0.00
2013-6-9,90.5,78.8,67.7,71.6,67.7,59.6,95,70,47,29.97,29.80,7,2,15,0.00
2013-6-10,94.0,79.2,68.6,72.1,68.8,64.6,97,74,38,29.92,29.85,13,2,17,0.01
2013-6-11,98.4,86.2,73.9,74.6,71.7,68.8,88,64,39,30.01,29.91,8,2,13,0.00
2013-6-12,97.3,85.8,74.6,76.8,73.9,71.8,91,69,46,30.03,29.89,9,2,16,0.00
2013-6-13,95.3,84.6,72.9,76.7,71.6,64.5,82,66,43,29.94,29.86,7,2,14,0.00
2013-6-14,88.7,77.0,63.5,68.1,61.8,57.1,97,63,39,30.03,29.93,12,1,16,0.00
2013-6-15,93.2,78.8,62.0,67.9,64.3,59.8,94,64,40,30.05,29.94,5,1,8,0.00
2013-6-16,92.0,79.9,70.0,74.6,69.5,66.3,88,72,51,30.03,29.92,6,0,12,0.00
2013-6-17,83.1,75.7,71.3,75.4,71.6,69.3,97,87,72,29.98,29.82,8,1,13,0.67
2013-6-18,86.0,74.9,67.9,71.8,69.1,67.0,97,84,57,29.97,29.82,2,0,8,0.00
2013-6-19,93.5,77.6,64.9,72.4,68.1,64.0,97,76,43,30.02,29.94,8,1,22,0.00
2013-6-20,94.8,81.6,66.6,73.0,68.8,65.1,96,69,40,30.11,30.02,6,0,9,0.00
2013-6-21,93.3,82.3,71.3,74.3,70.7,68.2,90,70,48,30.15,30.05,6,1,10,0.00
2013-6-22,93.7,82.5,70.2,73.9,70.0,67.4,91,68,46,30.12,29.99,5,1,13,0.00
2013-6-23,94.0,82.1,71.1,72.5,69.4,66.4,85,67,45,30.09,29.99,6,1,10,0.00
2013-6-24,94.8,83.6,73.1,75.6,72.9,69.5,92,72,49,30.11,29.99,6,1,10,0.00
2013-6-25,93.9,83.9,73.8,75.3,72.1,68.7,92,70,44,30.06,29.92,10,2,16,0.00
2013-6-26,95.2,85.2,76.1,75.2,72.1,69.8,87,66,48,29.98,29.84,12,3,17,0.00
2013-6-27,100.1,84.5,72.0,80.7,75.3,69.1,98,75,52,29.91,29.79,9,2,17,1.33
2013-6-28,90.5,78.3,71.2,77.6,72.4,68.2,98,84,55,29.91,29.70,6,1,17,1.02
2013-6-29,89.8,79.8,66.2,69.8,64.6,60.0,96,62,39,29.75,29.67,6,1,13,0.00
2013-6-30,80.8,73.3,64.8,66.9,64.0,60.7,89,73,57,29.82,29.70,5,0,9,0.00
2013-7-1,82.3,72.2,65.6,68.7,64.7,60.6,95,78,58,29.93,29.80,5,1,10,0.00
2013-7-2,85.0,73.3,61.1,66.0,62.7,59.7,96,72,47,30.02,29.91,5,0,10,0.20
2013-7-3,86.6,72.5,60.8,68.4,63.8,59.5,98,77,43,30.09,30.00,5,0,6,0.00
2013-7-4,90.0,76.4,63.0,71.9,67.1,61.5,97,75,49,30.03,29.93,5,0,12,0.00
2013-7-5,89.3,75.3,67.0,73.2,68.5,62.3,97,81,56,30.05,29.95,6,1,17,0.01
2013-7-6,91.1,77.5,67.1,72.7,69.4,63.5,96,78,50,30.05,29.95,5,1,9,0.00
2013-7-7,90.0,79.5,69.7,76.2,72.1,68.4,96,79,56,30.08,30.01,3,1,9,0.00
2013-7-8,93.0,80.8,71.1,77.4,73.6,69.9,97,80,56,30.14,30.04,5,1,10,0.00
2013-7-9,95.7,85.5,75.5,76.2,73.8,71.5,92,70,46,30.11,29.98,7,2,12,0.00
2013-7-10,97.6,86.4,78.5,79.6,74.8,70.5,81,69,49,30.03,29.86,8,1,13,0.00
2013-7-11,97.1,84.0,74.9,78.1,72.1,64.3,89,69,49,29.94,29.87,6,0,10,0.00
2013-7-12,89.1,78.4,65.3,67.2,63.1,60.0,84,61,43,30.01,29.92,7,1,14,0.00
2013-7-13,89.3,76.8,62.9,63.9,61.3,59.2,88,61,39,30.02,29.93,5,1,13,0.00
2013-7-14,90.1,77.9,67.1,72.7,68.7,62.1,90,74,53,30.06,29.95,7,1,13,0.00
2013-7-15,92.1,79.7,73.4,77.3,73.5,70.6,96,83,57,30.17,30.05,8,1,13,0.69
2013-7-16,94.2,82.1,71.9,76.0,73.2,70.4,96,76,51,30.24,30.16,6,1,13,0.01
2013-7-17,98.4,85.1,71.2,77.2,72.6,69.7,96,69,43,30.28,30.13,5,0,10,0.00
2013-7-18,92.8,78.4,70.8,78.1,73.6,69.9,97,86,58,30.17,30.03,7,0,16,0.34
2013-7-19,91.4,80.1,70.2,76.2,72.6,69.6,98,80,57,30.07,29.92,6,1,10,0.00
2013-7-20,93.6,82.9,72.7,76.2,73.5,70.6,95,75,52,29.96,29.83,8,1,13,0.00
2013-7-21,93.7,83.5,73.3,76.5,72.8,70.1,93,72,49,29.95,29.86,9,2,17,0.00
2013-7-22,87.2,78.6,71.9,75.9,73.5,70.4,97,85,63,29.95,29.85,9,2,15,2.07
2013-7-23,90.4,78.3,69.0,77.8,73.7,67.5,97,87,65,29.98,29.82,8,1,12,0.84
2013-7-24,87.1,79.8,74.0,75.7,73.5,68.4,97,82,64,29.94,29.84,3,0,7,0.00
2013-7-25,85.7,75.1,63.6,68.2,63.9,60.1,95,70,47,30.06,29.94,3,0,9,0.00
2013-7-26,85.5,73.2,60.3,67.7,64.6,59.2,97,76,52,30.06,29.95,3,0,7,0.00
2013-7-27,89.5,76.1,67.7,71.1,68.1,65.6,95,78,52,29.99,29.88,2,0,7,0.11
2013-7-28,85.9,74.7,68.2,67.3,64.2,61.9,84,71,51,30.05,29.93,6,1,9,0.00
2013-7-29,92.1,77.9,67.6,70.3,65.7,61.0,81,68,46,30.14,30.04,3,1,7,0.00
2013-7-30,85.3,78.9,72.8,74.9,71.0,67.4,88,77,63,30.11,30.00,6,1,9,0.01
2013-7-31,91.8,79.9,73.9,78.6,73.8,71.2,95,82,61,30.04,29.90,8,1,10,0.59
2013-8-1,89.5,78.9,69.1,75.6,71.3,67.3,98,79,54,30.03,29.94,5,0,8,0.00
2013-8-2,92.0,79.1,65.4,72.7,69.2,64.5,98,74,48,30.01,29.93,5,0,9,0.00
2013-8-3,87.5,78.5,72.6,76.3,72.5,69.8,93,82,67,30.05,29.91,6,1,13,0.00
2013-8-4,90.5,79.6,68.6,75.9,72.5,67.7,98,81,59,30.09,30.01,5,0,8,0.01
2013-8-5,84.2,77.0,72.7,76.8,72.2,68.1,95,85,71,30.04,29.89,3,1,10,0.43
2013-8-6,88.0,80.6,73.9,79.7,75.6,72.7,96,85,71,29.94,29.85,5,1,8,0.01
2013-8-7,96.2,84.1,75.6,78.9,76.0,72.8,93,78,52,29.94,29.84,5,1,9,0.00
2013-8-8,97.6,86.1,77.3,79.0,76.7,75.3,94,76,51,29.93,29.84,6,1,10,0.00
2013-8-9,97.9,86.3,76.0,79.7,75.6,72.4,93,73,46,30.00,29.90,5,1,10,0.00
2013-8-10,93.3,81.4,74.9,76.5,74.1,71.6,94,80,52,30.11,29.98,3,0,8,0.04
2013-8-11,92.7,79.2,74.4,80.5,75.3,71.7,96,88,63,30.10,30.02,12,0,13,0.61
2013-8-12,93.4,80.7,71.6,78.8,74.5,70.0,95,83,60,30.04,29.92,8,2,14,0.09
2013-8-13,86.4,77.6,70.8,76.6,72.1,68.0,97,84,65,30.00,29.91,3,0,7,0.01
2013-8-14,81.7,73.3,65.9,67.9,61.4,56.6,86,68,47,30.06,29.95,7,2,14,0.00
2013-8-15,83.2,68.7,56.1,60.4,57.5,53.9,93,69,43,30.07,29.99,3,0,12,0.00
2013-8-16,85.2,71.5,59.0,69.3,64.5,57.3,96,80,54,30.04,29.97,5,1,9,0.00
2013-8-17,82.1,72.7,65.7,72.5,67.1,64.2,96,83,64,30.07,30.00,5,1,9,0.01
2013-8-18,87.2,73.3,65.2,71.1,67.8,64.0,97,84,57,30.11,30.02,2,0,7,0.00
2013-8-19,90.3,76.7,64.1,71.3,68.4,63.2,98,78,51,30.09,29.98,3,0,8,0.00
2013-8-20,91.2,79.7,67.2,74.4,70.7,66.0,98,76,53,30.08,30.00,3,0,7,0.00
2013-8-21,93.8,81.3,71.4,76.6,72.5,69.6,95,77,49,30.12,30.02,2,0,6,0.00
2013-8-22,94.2,81.4,72.4,78.3,73.5,70.8,95,78,51,30.11,29.99,5,0,16,0.00
2013-8-23,94.6,81.9,69.1,76.0,71.7,68.2,98,74,44,30.05,29.96,5,0,10,0.00
2013-8-24,94.0,83.1,72.1,77.2,73.4,70.6,96,74,52,30.12,30.02,7,1,10,0.00
2013-8-25,92.2,80.2,73.6,75.9,72.8,70.9,93,79,55,30.24,30.12,6,1,9,0.00
2013-8-26,92.2,81.0,70.0,72.4,69.7,66.6,95,71,45,30.24,30.11,5,1,7,0.00
2013-8-27,92.2,80.3,66.8,70.1,67.1,63.8,90,66,47,30.14,30.02,6,1,8,0.00
2013-8-28,94.7,80.6,65.3,69.7,67.1,63.6,95,66,41,30.08,30.00,5,0,8,0.00
2013-8-29,96.3,82.0,67.6,73.8,69.9,65.8,94,70,45,30.07,29.95,6,0,8,0.00
2013-8-30,98.4,84.5,70.3,74.1,71.8,69.1,97,69,43,30.00,29.87,5,0,9,0.00
2013-8-31,98.3,85.8,73.5,75.2,72.1,69.4,89,66,44,29.91,29.80,8,2,13,0.00
2013-9-1,98.5,84.0,76.9,75.9,72.8,70.6,81,70,47,29.89,29.78,10,2,23,0.00
2013-9-2,91.5,82.1,74.8,75.9,73.9,71.9,94,77,57,29.92,29.81,12,2,15,0.06
2013-9-3,91.3,78.6,65.2,72.1,65.9,59.0,96,68,38,30.01,29.89,6,0,9,0.00
2013-9-4,90.0,76.0,63.0,68.1,64.2,60.9,94,70,45,30.11,30.00,7,1,12,0.00
2013-9-5,92.7,79.7,64.0,68.4,65.3,61.0,91,64,43,30.14,30.06,4,1,14,0.00
2013-9-6,94.8,78.6,66.8,68.2,65.7,63.8,90,67,39,30.13,30.01,2,0,8,0.00
2013-9-7,97.0,80.6,65.3,70.1,66.1,63.1,94,65,34,30.06,29.94,5,1,8,0.00
2013-9-8,99.4,83.9,67.9,72.1,68.6,65.1,92,63,37,29.98,29.87,5,1,9,0.00
2013-9-9,94.3,83.8,73.8,73.8,71.1,68.1,83,66,50,30.01,29.92,7,1,10,0.00
2013-9-10,97.5,82.2,74.5,74.1,71.0,69.0,85,70,42,30.11,30.00,7,1,13,0.01
2013-9-11,95.7,82.0,73.2,75.6,71.7,69.1,93,73,47,30.14,30.03,5,0,8,0.00
2013-9-12,96.4,82.3,72.0,74.5,70.9,67.9,92,70,45,30.05,29.91,5,1,10,0.00
2013-9-13,85.9,74.9,66.2,71.1,60.9,54.7,89,64,38,30.00,29.92,6,1,13,0.00
2013-9-14,79.3,66.2,53.5,54.9,51.5,49.2,90,62,37,30.08,30.00,6,1,17,0.00
2013-9-15,89.6,69.0,50.8,58.2,53.8,49.1,96,64,28,30.10,30.03,5,1,12,0.00
2013-9-16,92.7,74.6,58.7,67.7,59.3,50.7,89,64,24,30.13,30.06,9,1,14,0.00
2013-9-17,93.2,78.7,65.9,67.5,65.2,62.2,95,67,37,30.14,30.00,4,1,8,0.00
2013-9-18,90.1,78.9,69.9,74.1,69.8,65.6,93,75,55,30.08,29.98,6,1,12,0.00
2013-9-19,94.2,80.2,69.3,72.8,68.8,66.7,94,71,42,30.08,29.93,8,1,14,0.00
2013-9-20,77.8,73.0,69.2,74.0,69.6,66.7,97,90,69,29.97,29.81,5,0,7,1.85
2013-9-21,78.4,68.3,55.5,68.6,59.4,53.8,98,76,45,29.91,29.79,8,1,16,0.16
2013-9-22,79.0,64.9,51.6,55.8,53.6,49.4,96,70,42,29.94,29.85,15,1,16,0.00
2013-9-23,84.2,69.3,55.0,61.8,57.9,52.1,90,69,44,29.95,29.85,5,1,10,0.00
2013-9-24,81.5,71.5,66.4,72.7,67.6,61.1,97,88,72,29.89,29.78,7,1,8,0.19
2013-9-25,84.7,74.3,65.7,70.6,67.4,63.3,97,81,53,29.83,29.76,6,0,8,0.00
2013-9-26,88.2,74.2,62.1,71.9,66.4,61.2,98,79,50,29.97,29.82,2,0,7,0.00
2013-9-27,87.2,73.4,62.0,69.5,64.6,61.1,98,76,46,30.07,29.97,6,0,9,0.00
2013-9-28,85.1,72.6,63.1,63.5,61.7,60.0,91,71,48,30.11,30.00,7,1,12,0.00
2013-9-29,69.5,67.2,64.6,66.5,63.2,60.5,96,87,75,30.03,29.94,5,1,8,0.11
2013-9-30,76.6,69.2,65.3,70.3,66.9,64.1,97,93,80,29.96,29.90,4,1,12,0.06
2013-10-1,85.2,73.6,66.4,72.8,68.9,64.9,95,86,65,30.05,29.94,7,1,12,0.00
2013-10-2,85.2,75.1,69.4,70.1,68.0,64.9,93,80,54,30.09,30.00,8,1,9,0.00
2013-10-3,88.0,75.9,65.3,73.0,68.9,63.9,96,80,58,30.04,29.93,6,1,12,0.00
2013-10-4,85.6,75.8,68.9,73.8,70.9,67.7,97,86,67,30.04,29.95,5,1,12,0.00
2013-10-5,89.2,78.7,71.6,73.4,71.7,70.1,95,80,55,30.01,29.86,8,1,13,0.06
2013-10-6,73.8,62.0,54.2,71.7,53.6,46.4,95,76,46,29.99,29.87,8,0,9,0.70
2013-10-7,70.2,55.9,44.7,53.6,48.6,43.9,98,79,52,30.11,29.96,4,0,10,0.00
2013-10-8,73.8,59.3,46.0,54.0,50.4,44.9,97,75,46,30.15,30.05,9,1,13,0.00
2013-10-9,79.0,65.4,54.6,65.9,59.5,51.1,96,82,63,30.14,30.05,7,1,9,0.00
2013-10-10,82.3,67.5,57.2,66.3,61.1,56.4,98,82,48,30.14,30.00,4,0,8,0.00
2013-10-11,83.3,68.2,55.5,66.1,60.4,54.7,98,79,50,30.05,29.95,6,1,9,0.01
2013-10-12,75.5,66.4,59.8,68.7,63.7,58.2,97,91,78,30.12,29.97,5,0,9,0.25
2013-10-13,79.3,68.6,61.3,67.5,62.7,54.9,98,83,62,30.25,30.11,5,1,12,0.01
2013-10-14,83.5,68.8,57.4,64.8,59.6,52.0,88,74,51,30.21,30.04,5,1,9,0.00
2013-10-15,73.2,69.3,66.7,66.4,64.7,63.0,96,85,75,30.05,29.94,10,1,13,0.45
2013-10-16,66.9,60.3,55.7,66.0,58.4,54.6,97,93,83,30.01,29.93,5,0,9,0.85
2013-10-17,68.9,57.8,46.8,56.9,52.7,45.7,96,85,56,30.03,29.95,2,0,9,0.01
2013-10-18,72.0,56.7,42.5,54.0,49.1,42.0,98,78,47,30.08,29.94,6,0,8,0.00
2013-10-19,59.1,51.8,38.9,54.1,47.1,37.9,96,85,59,30.08,29.92,5,0,9,0.02
2013-10-20,67.8,50.1,36.8,46.6,41.9,36.0,98,77,41,30.13,30.00,6,0,9,0.01
2013-10-21,73.7,57.4,42.3,53.9,48.0,40.6,97,74,43,30.08,29.97,5,1,10,0.00
2013-10-22,67.8,57.7,51.7,52.9,47.8,42.1,94,72,40,30.07,29.90,6,1,10,0.02
2013-10-23,60.1,50.3,41.2,47.6,41.3,37.9,94,73,47,30.17,29.95,4,0,10,0.00
2013-10-24,65.1,51.0,40.3,48.1,41.7,34.1,95,72,49,30.38,30.11,5,0,12,0.00
2013-10-25,54.4,42.2,32.1,34.1,31.2,28.0,92,68,36,30.53,30.33,6,1,10,0.00
2013-10-26,65.3,50.9,33.9,50.0,40.2,32.1,94,69,46,30.33,30.10,9,1,13,0.00
2013-10-27,67.0,58.4,50.7,57.9,54.3,49.0,96,87,71,30.10,30.01,4,0,7,0.00
2013-10-28,70.0,60.1,54.7,59.5,56.1,53.6,97,87,65,30.21,30.06,4,0,6,0.00
2013-10-29,75.2,64.2,54.9,67.7,60.7,53.5,97,89,77,30.23,30.10,5,1,10,0.00
2013-10-30,74.8,68.2,62.0,67.0,63.6,60.0,94,85,75,30.17,29.94,5,1,14,0.00
2013-10-31,70.6,67.3,60.8,67.7,64.4,53.0,96,91,70,29.94,29.57,16,5,25,1.98
2013-11-1,73.1,58.7,45.9,54.3,50.0,45.1,98,76,42,29.89,29.76,7,1,16,0.00
2013-11-2,60.8,51.2,38.9,48.3,43.4,37.3,96,76,54,30.21,29.89,7,1,14,0.00
2013-11-3,61.8,46.6,33.6,43.8,38.8,32.8,98,78,44,30.32,30.16,6,1,9,0.00
2013-11-4,65.9,54.7,44.4,48.6,44.5,39.0,84,69,48,30.29,30.19,8,1,14,0.00
2013-11-5,71.6,61.5,54.2,55.0,50.3,46.2,76,67,54,30.29,30.12,7,2,15,0.00
2013-11-6,61.4,56.7,45.1,59.9,51.8,41.0,96,84,69,30.27,30.03,10,3,15,0.32
2013-11-7,56.0,44.8,34.3,41.2,36.6,33.0,96,75,45,30.41,30.26,9,1,13,0.00
2013-11-8,63.7,46.9,30.9,43.2,36.8,30.1,98,72,39,30.40,30.21,5,0,8,0.01
2013-11-9,60.9,50.4,41.3,45.4,41.7,37.3,93,73,47,30.30,30.20,5,1,14,0.00
2013-11-10,68.3,52.3,41.3,50.2,43.7,37.3,97,75,43,30.35,30.26,6,1,12,0.00
2013-11-11,71.3,53.4,38.8,48.4,42.6,35.8,95,71,37,30.31,30.16,8,0,9,0.00
2013-11-12,54.8,39.8,29.5,49.4,30.5,21.9,95,70,46,30.67,30.22,12,3,20,0.00
2013-11-13,49.3,33.5,23.5,25.1,22.6,19.9,93,68,32,30.72,30.45,6,1,9,0.00
2013-11-14,57.3,40.6,21.7,29.2,23.8,20.2,95,57,26,30.45,30.15,12,1,13,0.00
2013-11-15,60.1,50.9,44.2,52.3,44.6,28.6,96,80,54,30.17,30.02,7,1,10,0.07
2013-11-16,68.2,61.4,51.8,64.8,59.1,50.1,97,92,87,30.05,29.85,12,3,20,0.00
2013-11-17,76.6,69.4,60.3,71.2,63.0,37.7,96,83,40,29.99,29.71,15,5,25,0.90
2013-11-18,63.9,52.5,39.9,40.3,35.9,29.6,86,55,35,30.24,29.99,6,1,14,0.00
2013-11-19,52.4,44.7,32.6,30.3,28.6,25.1,86,54,35,30.31,30.16,8,1,14,0.00
2013-11-20,64.1,49.7,32.3,42.6,36.4,28.3,86,62,40,30.19,30.07,9,1,14,0.00
2013-11-21,67.7,58.1,50.2,59.3,52.6,41.9,96,82,70,30.20,30.10,8,2,15,0.01
2013-11-22,59.5,52.9,42.8,58.7,51.0,40.2,97,93,87,30.39,30.15,8,2,18,0.73
2013-11-23,45.3,39.9,28.4,40.4,30.6,18.3,92,71,41,30.57,30.36,10,4,20,0.00
2013-11-24,36.2,29.5,22.3,18.9,16.8,15.0,73,59,43,30.67,30.42,10,3,20,0.00
2013-11-25,35.5,33.9,31.6,33.8,26.9,17.1,94,77,54,30.45,30.12,8,1,8,0.20
2013-11-26,39.7,36.1,32.9,35.5,32.6,23.9,95,87,65,30.16,29.96,13,2,23,0.06
2013-11-27,33.3,27.4,18.0,25.0,17.4,14.2,91,67,51,30.42,30.15,8,2,18,0.00
2013-11-28,44.9,31.0,17.1,25.8,21.0,14.9,93,69,41,30.50,30.40,7,1,12,0.00
2013-11-29,56.9,37.8,24.2,33.2,28.4,22.2,93,72,40,30.58,30.43,7,0,9,0.00
2013-11-30,57.5,43.8,26.1,34.1,30.1,23.6,95,62,36,30.45,30.22,10,1,13,0.00
2013-12-1,59.7,51.4,37.7,45.8,38.7,30.9,78,62,50,30.22,29.91,10,2,13,0.00
2013-12-2,60.0,53.6,45.3,54.2,48.7,42.3,97,84,68,29.92,29.71,2,0,7,0.00
2013-12-3,59.6,54.2,46.9,58.5,53.2,46.1,98,96,93,29.76,29.67,6,1,10,0.00
2013-12-4,74.5,67.7,59.0,65.0,62.9,57.9,96,85,72,29.82,29.67,17,4,23,0.01
2013-12-5,69.9,48.0,33.3,66.4,44.8,31.8,95,89,78,30.15,29.81,8,3,16,0.02
2013-12-6,33.6,30.1,24.2,31.9,28.5,22.5,95,94,92,30.46,30.07,7,2,16,0.99
2013-12-7,28.9,24.8,21.0,27.4,22.6,18.6,94,91,89,30.58,30.33,7,2,13,0.00
2013-12-8,33.2,31.5,28.6,32.4,30.3,27.1,97,95,94,30.35,30.08,5,0,7,0.00
2013-12-9,32.9,31.4,29.8,30.2,28.6,27.5,96,90,84,30.31,30.17,7,1,13,0.00
2013-12-10,39.0,29.4,21.6,30.0,24.5,20.0,95,83,66,30.47,30.24,4,0,10,0.01
2013-12-11,45.7,32.2,20.5,33.7,26.6,19.0,96,81,56,30.60,30.40,5,0,13,0.01
2013-12-12,46.4,31.5,20.2,23.9,19.0,13.1,90,63,32,30.64,30.38,6,1,13,0.00
2013-12-13,47.7,36.0,23.0,37.7,26.7,20.4,94,72,39,30.39,29.87,17,1,18,0.75
2013-12-14,43.7,39.9,34.3,42.9,37.2,29.7,97,90,83,30.17,29.81,17,2,23,0.60
2013-12-15,39.6,34.0,31.3,31.0,29.3,27.6,93,83,71,30.30,30.16,5,1,10,0.00
2013-12-16,57.3,44.6,31.3,40.3,35.5,29.2,93,72,51,30.24,30.14,14,4,18,0.00
2013-12-17,60.2,45.9,30.9,42.5,36.6,29.5,95,72,49,30.31,30.17,9,2,14,0.00
2013-12-18,60.0,45.8,28.6,39.2,33.8,27.4,97,66,40,30.36,30.11,8,2,17,0.00
2013-12-19,61.1,54.4,46.7,54.2,46.5,38.8,80,75,62,30.15,29.93,7,3,20,0.00
2013-12-20,67.8,63.9,59.7,64.4,59.9,53.8,95,87,79,29.98,29.78,12,4,20,0.39
2013-12-21,75.6,65.7,52.6,67.2,61.5,51.8,97,87,71,29.80,29.46,17,5,28,1.43
2013-12-22,54.9,48.1,36.4,52.5,45.2,30.5,97,90,79,30.27,29.71,7,1,14,0.01
2013-12-23,37.6,32.2,23.2,30.8,26.1,21.7,94,78,65,30.53,30.25,6,1,14,0.00
2013-12-24,35.8,28.2,23.1,24.4,19.1,16.2,96,70,45,30.63,30.42,6,1,12,0.00
2013-12-25,49.9,34.8,21.7,31.9,23.9,16.0,92,66,42,30.45,30.32,5,1,14,0.00
2013-12-26,48.4,34.7,25.5,31.9,27.2,23.8,96,77,43,30.46,30.36,7,1,10,0.00
2013-12-27,56.1,37.8,23.8,31.9,27.8,22.0,94,71,36,30.49,30.36,4,0,7,0.00
2013-12-28,47.3,39.8,30.6,40.6,34.6,28.3,95,82,60,30.37,29.97,6,0,8,0.04
2013-12-29,54.6,44.0,34.1,43.4,38.7,28.6,97,82,65,30.21,29.97,7,1,13,0.03
2013-12-30,34.5,30.5,28.1,29.0,25.6,23.4,87,82,78,30.38,30.20,6,1,12,0.00
2013-12-31,48.7,32.5,20.8,32.1,25.9,19.1,96,79,48,30.49,30.32,5,0,7,0.01
2014-1-1,54.1,42.1,25.6,45.4,33.6,23.9,95,74,46,30.32,29.95,7,2,13,0.01
2014-1-2,50.8,33.9,21.2,48.2,27.1,13.6,95,76,62,30.48,29.90,13,2,21,0.17